Time;durP1;ratioP1;P1;durP2;ratioP2;P2;SDS_P1;SDS_P2;PMS_P1;PMS_P2;Temp;Humidity;BMP_temperature;BMP_pressure;BME280_temperature;BME280_humidity;BME280_pressure;Samples;Min_cycle;Max_cycle;Signal;HPM_P1;HPM_P2
2023/09/14 00:01:01;;;;;;;7.90;2.37;;;11.60;99.90;;;;;;5032791;28;20459;-59
2023/09/14 00:03:28;;;;;;;4.57;1.87;;;11.60;99.90;;;;;;5032904;28;20525;-59
2023/09/14 00:05:55;;;;;;;4.53;2.07;;;11.60;99.90;;;;;;5032676;28;20939;-59
2023/09/14 00:08:23;;;;;;;9.20;2.20;;;11.60;99.90;;;;;;5032709;28;20437;-59
2023/09/14 00:10:54;;;;;;;7.10;4.03;;;11.60;99.90;;;;;;5033151;28;20440;-59
2023/09/14 00:13:21;;;;;;;4.87;1.83;;;11.50;99.90;;;;;;5033207;28;20425;-59
2023/09/14 00:15:48;;;;;;;5.70;2.57;;;11.50;99.90;;;;;;5032932;28;20795;-59
2023/09/14 00:18:15;;;;;;;7.93;2.20;;;11.50;99.90;;;;;;5032692;28;21005;-59
2023/09/14 00:20:42;;;;;;;4.90;2.10;;;11.40;99.90;;;;;;5032892;28;20440;-59
2023/09/14 00:23:08;;;;;;;6.67;2.10;;;11.40;99.90;;;;;;5033114;28;20457;-60
2023/09/14 00:25:36;;;;;;;4.87;2.20;;;11.40;99.90;;;;;;5033109;28;20517;-58
2023/09/14 00:28:04;;;;;;;7.37;2.37;;;11.40;99.90;;;;;;5035515;28;20440;-59
2023/09/14 00:30:30;;;;;;;6.30;1.83;;;11.40;99.90;;;;;;5037021;28;20444;-59
2023/09/14 00:32:57;;;;;;;13.40;2.40;;;11.30;99.90;;;;;;5037038;28;20464;-59
2023/09/14 00:35:25;;;;;;;13.20;2.13;;;11.30;99.90;;;;;;5037147;28;20453;-59
2023/09/14 00:37:51;;;;;;;4.67;2.60;;;11.20;99.90;;;;;;5037076;28;20486;-59
2023/09/14 00:40:18;;;;;;;7.70;2.70;;;11.20;99.90;;;;;;5036796;28;20941;-59
2023/09/14 00:42:48;;;;;;;8.50;2.70;;;11.20;99.90;;;;;;5036977;28;20460;-60
2023/09/14 00:45:17;;;;;;;6.70;1.70;;;11.20;99.90;;;;;;5036897;28;20824;-59
2023/09/14 00:47:46;;;;;;;4.47;2.07;;;11.10;99.90;;;;;;5036895;28;20440;-59
2023/09/14 00:50:15;;;;;;;9.50;2.30;;;11.20;99.90;;;;;;5037116;28;20449;-59
2023/09/14 00:52:43;;;;;;;7.50;2.70;;;11.10;99.90;;;;;;5036794;28;20465;-59
2023/09/14 00:55:11;;;;;;;3.50;2.07;;;11.10;99.90;;;;;;5036895;28;20437;-59
2023/09/14 00:57:39;;;;;;;10.87;3.07;;;11.00;99.90;;;;;;5036902;28;20538;-59
2023/09/14 01:00:10;;;;;;;7.53;2.50;;;11.00;99.90;;;;;;5036658;28;20455;-59
2023/09/14 01:02:38;;;;;;;8.23;2.40;;;11.00;99.90;;;;;;5036205;28;20542;-59
2023/09/14 01:05:06;;;;;;;4.90;2.10;;;11.00;99.90;;;;;;5036264;28;20952;-59
2023/09/14 01:07:33;;;;;;;12.23;2.57;;;11.00;99.90;;;;;;5036236;28;20935;-61
2023/09/14 01:10:00;;;;;;;8.90;2.40;;;10.90;99.90;;;;;;5036530;28;20440;-59
2023/09/14 01:12:28;;;;;;;10.97;2.60;;;10.90;99.90;;;;;;5036274;28;20561;-60
2023/09/14 01:15:01;;;;;;;6.37;2.40;;;10.90;99.90;;;;;;5036477;28;20445;-58
2023/09/14 01:17:50;;;;;;;7.13;2.67;;;10.80;99.90;;;;;;5035994;28;20471;-58
2023/09/14 01:20:40;;;;;;;5.13;2.23;;;10.90;99.90;;;;;;5036146;28;20429;-59
2023/09/14 01:23:19;;;;;;;12.40;3.07;;;10.90;99.90;;;;;;5036050;28;21017;-58
2023/09/14 01:25:52;;;;;;;10.43;2.80;;;10.80;99.90;;;;;;5036495;28;20512;-59
2023/09/14 01:28:19;;;;;;;5.70;2.60;;;10.80;99.90;;;;;;5036036;28;20425;-59
2023/09/14 01:30:46;;;;;;;4.30;1.97;;;10.80;99.90;;;;;;5036056;28;20539;-57
2023/09/14 01:33:15;;;;;;;14.57;2.83;;;10.90;99.90;;;;;;5037136;28;20465;-58
2023/09/14 01:35:47;;;;;;;9.90;2.67;;;10.90;99.90;;;;;;5035854;28;21000;-60
2023/09/14 01:38:15;;;;;;;10.48;2.53;;;10.90;99.90;;;;;;5035932;28;20465;-59
2023/09/14 01:40:45;;;;;;;10.47;4.23;;;10.90;99.90;;;;;;5035490;28;20206;-59
2023/09/14 01:43:15;;;;;;;5.67;2.70;;;10.80;99.90;;;;;;5035670;28;20918;-59
2023/09/14 01:45:42;;;;;;;5.47;3.30;;;10.70;99.90;;;;;;5036182;28;20433;-59
2023/09/14 01:48:14;;;;;;;4.70;2.10;;;10.70;99.90;;;;;;5036064;28;20821;-59
2023/09/14 01:50:41;;;;;;;13.00;2.63;;;10.70;99.90;;;;;;5039459;28;20433;-59
2023/09/14 01:53:07;;;;;;;7.60;2.40;;;10.60;99.90;;;;;;5039873;28;20461;-59
2023/09/14 01:55:34;;;;;;;4.70;2.20;;;10.60;99.90;;;;;;5040536;28;20445;-59
2023/09/14 01:58:01;;;;;;;7.53;2.65;;;10.70;99.90;;;;;;5040726;28;20491;-60
2023/09/14 02:00:29;;;;;;;5.43;2.47;;;10.70;99.90;;;;;;5040516;28;20216;-59
2023/09/14 02:02:56;;;;;;;3.43;2.30;;;10.70;99.90;;;;;;5059431;22;20515;-60
2023/09/14 02:05:23;;;;;;;3.70;2.37;;;10.70;99.90;;;;;;5035267;28;20436;-60
2023/09/14 02:07:49;;;;;;;11.17;2.70;;;10.70;99.90;;;;;;5035498;28;20429;-61
2023/09/14 02:10:16;;;;;;;8.37;2.53;;;10.70;99.90;;;;;;5035071;28;20433;-60
2023/09/14 02:12:45;;;;;;;5.07;2.35;;;10.70;99.90;;;;;;5035004;28;20461;-60
2023/09/14 02:15:11;;;;;;;3.27;2.00;;;10.70;99.90;;;;;;5035255;28;20241;-60
2023/09/14 02:17:39;;;;;;;3.83;2.30;;;10.70;99.90;;;;;;5034958;28;20481;-61
2023/09/14 02:20:08;;;;;;;8.03;2.63;;;10.70;99.90;;;;;;5034782;28;20953;-60
2023/09/14 02:22:35;;;;;;;7.47;3.38;;;10.60;99.90;;;;;;5035008;28;20465;-60
2023/09/14 02:25:02;;;;;;;5.67;2.63;;;10.60;99.90;;;;;;5035175;28;20202;-60
2023/09/14 02:27:29;;;;;;;6.32;2.20;;;10.60;99.90;;;;;;5034995;28;20436;-60
2023/09/14 02:29:56;;;;;;;6.80;3.63;;;10.50;99.90;;;;;;5034683;28;20206;-60
2023/09/14 02:32:24;;;;;;;11.40;2.63;;;10.60;99.90;;;;;;5034934;28;20461;-59
2023/09/14 02:34:52;;;;;;;8.50;2.60;;;10.60;99.90;;;;;;5035106;28;20436;-60
2023/09/14 02:37:18;;;;;;;5.43;1.90;;;10.60;99.90;;;;;;5034764;28;20481;-61
2023/09/14 02:39:45;;;;;;;10.10;2.40;;;10.50;99.90;;;;;;5034695;28;20333;-61
2023/09/14 02:42:12;;;;;;;6.10;2.20;;;10.50;99.90;;;;;;5034551;28;20465;-60
2023/09/14 02:44:39;;;;;;;5.10;2.22;;;10.60;99.90;;;;;;5034573;28;20202;-60
2023/09/14 02:47:05;;;;;;;8.13;2.47;;;10.60;99.90;;;;;;5034233;28;20546;-60
2023/09/14 02:49:32;;;;;;;8.47;2.57;;;10.50;99.90;;;;;;5034482;28;20202;-60
2023/09/14 02:52:00;;;;;;;6.30;2.80;;;10.50;99.90;;;;;;5033360;28;20469;-60
2023/09/14 02:54:27;;;;;;;7.90;2.60;;;10.50;99.90;;;;;;5034621;28;20198;-60
2023/09/14 02:56:54;;;;;;;6.30;2.50;;;10.40;99.90;;;;;;5034168;28;20543;-60
2023/09/14 02:59:21;;;;;;;9.47;2.97;;;10.40;99.90;;;;;;5034612;28;20443;-60
2023/09/14 03:01:49;;;;;;;6.72;3.00;;;10.30;99.90;;;;;;5033625;28;20985;-60
2023/09/14 03:04:16;;;;;;;6.82;2.90;;;10.30;99.90;;;;;;5034272;28;20603;-60
2023/09/14 03:06:43;;;;;;;6.65;2.92;;;10.30;99.90;;;;;;5034222;28;20202;-60
2023/09/14 03:09:11;;;;;;;6.80;3.10;;;10.30;99.90;;;;;;5034023;28;20194;-60
2023/09/14 03:11:38;;;;;;;6.60;2.20;;;10.30;99.90;;;;;;5033599;28;20973;-60
2023/09/14 03:14:04;;;;;;;6.65;2.45;;;10.30;99.90;;;;;;5034112;28;20695;-62
2023/09/14 03:16:31;;;;;;;4.70;2.50;;;10.30;99.90;;;;;;5033757;28;20676;-60
2023/09/14 03:18:58;;;;;;;6.50;2.50;;;10.30;99.90;;;;;;5033661;28;20699;-61
2023/09/14 03:21:26;;;;;;;5.57;2.60;;;10.30;99.90;;;;;;5034112;28;20449;-61
2023/09/14 03:23:53;;;;;;;11.85;2.58;;;10.30;99.90;;;;;;5033588;28;20205;-60
2023/09/14 03:26:23;;;;;;;8.27;2.13;;;10.30;99.90;;;;;;5033903;28;20302;-60
2023/09/14 03:28:51;;;;;;;5.82;2.65;;;10.30;99.90;;;;;;5033848;28;20642;-61
2023/09/14 03:31:18;;;;;;;4.00;1.92;;;10.20;99.90;;;;;;5033546;28;20198;-60
2023/09/14 03:33:47;;;;;;;5.47;2.58;;;10.20;99.90;;;;;;5033271;28;20236;-61
2023/09/14 03:36:14;;;;;;;5.63;2.33;;;10.20;99.90;;;;;;5033918;28;20254;-60
2023/09/14 03:38:41;;;;;;;7.03;2.30;;;10.20;99.90;;;;;;5033504;28;20691;-61
2023/09/14 03:41:08;;;;;;;7.35;2.40;;;10.20;99.90;;;;;;5033620;28;20209;-60
2023/09/14 03:43:36;;;;;;;10.90;2.60;;;10.20;99.90;;;;;;5033886;28;20230;-60
2023/09/14 03:46:02;;;;;;;5.97;2.72;;;10.20;99.90;;;;;;5033693;28;20202;-62
2023/09/14 03:48:29;;;;;;;4.60;2.50;;;10.20;99.90;;;;;;5033649;28;20198;-61
2023/09/14 03:50:58;;;;;;;3.45;2.15;;;10.10;99.90;;;;;;5033514;28;20198;-60
2023/09/14 03:53:26;;;;;;;3.45;2.70;;;10.10;99.90;;;;;;5033559;28;20222;-60
2023/09/14 03:55:53;;;;;;;10.05;2.80;;;10.10;99.90;;;;;;5033438;28;20206;-59
2023/09/14 03:58:19;;;;;;;6.85;2.50;;;10.10;99.90;;;;;;5033220;28;20283;-58
2023/09/14 04:00:48;;;;;;;10.65;2.60;;;10.10;99.90;;;;;;5057386;22;20582;-58
2023/09/14 04:03:17;;;;;;;4.13;2.47;;;10.10;99.90;;;;;;5032531;28;20210;-58
2023/09/14 04:05:43;;;;;;;6.22;2.50;;;10.10;99.90;;;;;;5033095;28;20627;-58
2023/09/14 04:08:10;;;;;;;6.97;2.70;;;10.10;99.90;;;;;;5033270;28;20201;-58
2023/09/14 04:12:12;;;;;;;12.68;3.20;;;10.10;99.90;;;;;;5103884;28;20558;-60
2023/09/14 04:14:39;;;;;;;8.60;3.00;;;10.10;99.90;;;;;;5106040;28;20211;-59
2023/09/14 04:17:06;;;;;;;9.93;2.90;;;10.10;99.90;;;;;;5092637;28;20447;-60
2023/09/14 04:19:32;;;;;;;4.47;2.10;;;10.10;99.90;;;;;;5091184;28;20200;-60
2023/09/14 04:21:59;;;;;;;5.53;3.05;;;10.10;99.90;;;;;;5091013;28;20228;-60
2023/09/14 04:24:26;;;;;;;7.40;2.80;;;10.10;99.90;;;;;;5090830;28;20206;-60
2023/09/14 04:26:53;;;;;;;6.43;2.40;;;10.10;99.90;;;;;;5091083;28;20211;-60
2023/09/14 04:29:21;;;;;;;5.68;2.20;;;10.10;99.90;;;;;;5091053;28;20200;-60
2023/09/14 04:31:48;;;;;;;6.55;2.65;;;10.10;99.90;;;;;;5091147;28;20635;-60
2023/09/14 04:34:14;;;;;;;6.00;2.80;;;10.10;99.90;;;;;;5091454;28;20204;-60
2023/09/14 04:36:41;;;;;;;6.10;2.72;;;10.10;99.90;;;;;;5090847;28;20200;-60
2023/09/14 04:39:09;;;;;;;4.57;2.10;;;10.00;99.90;;;;;;5091147;28;20227;-60
2023/09/14 04:41:35;;;;;;;6.35;2.55;;;10.00;99.90;;;;;;5091200;28;20546;-60
2023/09/14 04:44:02;;;;;;;7.63;2.70;;;10.00;99.90;;;;;;5092691;28;20208;-61
2023/09/14 04:46:30;;;;;;;6.65;2.90;;;9.90;99.90;;;;;;5093291;28;20715;-60
2023/09/14 04:48:57;;;;;;;8.30;2.77;;;9.90;99.90;;;;;;5093520;28;20200;-59
2023/09/14 04:51:24;;;;;;;14.20;3.50;;;9.90;99.90;;;;;;5092756;28;21104;-60
2023/09/14 04:53:51;;;;;;;4.70;2.47;;;9.90;99.90;;;;;;5094668;28;20196;-60
2023/09/14 04:56:17;;;;;;;6.40;2.57;;;10.00;99.90;;;;;;5095082;28;20442;-60
2023/09/14 04:58:44;;;;;;;4.05;2.53;;;10.00;99.90;;;;;;5094360;28;20449;-59
2023/09/14 05:01:11;;;;;;;8.85;2.75;;;10.00;99.90;;;;;;5090277;28;20216;-60
2023/09/14 05:03:40;;;;;;;7.47;2.90;;;10.10;99.90;;;;;;5090816;28;20211;-60
2023/09/14 05:06:07;;;;;;;7.18;2.80;;;10.10;99.90;;;;;;5090557;28;20946;-60
2023/09/14 05:08:34;;;;;;;8.55;2.70;;;10.10;99.90;;;;;;5091127;28;20235;-61
2023/09/14 05:11:03;;;;;;;6.25;2.53;;;10.20;99.90;;;;;;5090627;28;20319;-61
2023/09/14 05:13:30;;;;;;;11.50;4.03;;;10.20;99.90;;;;;;5090398;28;20298;-60
2023/09/14 05:15:57;;;;;;;6.80;2.20;;;10.30;99.90;;;;;;5089471;28;20856;-60
2023/09/14 05:18:24;;;;;;;7.72;2.58;;;10.30;99.90;;;;;;5089750;28;20444;-60
2023/09/14 05:20:52;;;;;;;4.80;2.53;;;10.30;99.90;;;;;;5089369;28;20196;-60
2023/09/14 05:23:19;;;;;;;6.93;3.10;;;10.30;99.90;;;;;;5078441;28;20443;-60
2023/09/14 05:25:46;;;;;;;10.00;3.27;;;10.30;99.90;;;;;;5076262;28;20937;-60
2023/09/14 05:28:14;;;;;;;9.50;4.80;;;10.30;99.90;;;;;;5075915;28;20447;-60
2023/09/14 05:30:40;;;;;;;11.73;5.50;;;10.40;99.90;;;;;;5076359;28;20483;-60
2023/09/14 05:33:07;;;;;;;13.10;6.67;;;10.50;99.90;;;;;;5076330;28;20455;-60
2023/09/14 05:35:34;;;;;;;26.97;9.23;;;10.50;99.90;;;;;;5076477;28;20512;-59
2023/09/14 05:38:02;;;;;;;23.27;11.07;;;10.50;99.90;;;;;;5075855;28;20443;-60
2023/09/14 05:40:29;;;;;;;23.40;12.37;;;10.60;99.90;;;;;;5076030;28;20443;-60
2023/09/14 05:42:56;;;;;;;17.43;10.50;;;10.60;99.90;;;;;;5075942;28;20554;-59
2023/09/14 05:45:23;;;;;;;17.33;9.40;;;10.70;99.90;;;;;;5076397;28;20451;-59
2023/09/14 05:47:50;;;;;;;18.60;7.00;;;10.70;99.90;;;;;;5076024;28;20451;-60
2023/09/14 05:50:17;;;;;;;14.10;7.00;;;10.80;99.90;;;;;;5075979;28;20473;-59
2023/09/14 05:52:43;;;;;;;10.80;6.00;;;10.90;99.90;;;;;;5075903;28;20469;-60
2023/09/14 05:55:11;;;;;;;15.47;6.90;;;10.90;99.90;;;;;;5075825;28;20876;-59
2023/09/14 05:57:38;;;;;;;15.40;7.73;;;11.00;99.90;;;;;;5076112;28;20523;-60
2023/09/14 06:00:12;;;;;;;11.87;6.63;;;11.10;99.90;;;;;;5075365;28;20505;-59
2023/09/14 06:02:40;;;;;;;12.97;6.60;;;11.20;99.90;;;;;;5075303;28;20548;-60
2023/09/14 06:05:08;;;;;;;12.10;5.73;;;11.30;99.90;;;;;;5075891;28;20532;-59
2023/09/14 06:07:34;;;;;;;9.30;6.30;;;11.30;99.90;;;;;;5075602;28;20439;-59
2023/09/14 06:10:02;;;;;;;10.03;4.57;;;11.40;99.90;;;;;;5075412;28;20537;-59
2023/09/14 06:12:31;;;;;;;6.53;5.30;;;11.50;99.90;;;;;;5075399;28;20490;-59
2023/09/14 06:14:58;;;;;;;10.63;4.40;;;11.50;99.90;;;;;;5075483;28;20445;-59
2023/09/14 06:17:24;;;;;;;11.27;4.57;;;11.60;99.90;;;;;;5075289;28;20446;-59
2023/09/14 06:19:51;;;;;;;13.67;4.60;;;11.70;99.90;;;;;;5075818;28;20446;-59
2023/09/14 06:22:18;;;;;;;10.30;4.60;;;11.80;99.90;;;;;;5076038;28;20470;-59
2023/09/14 06:24:45;;;;;;;5.50;2.83;;;11.90;99.90;;;;;;5076299;28;20531;-59
2023/09/14 06:27:11;;;;;;;5.30;3.40;;;11.90;99.90;;;;;;5075417;28;20443;-59
2023/09/14 06:29:39;;;;;;;12.63;3.77;;;12.00;99.90;;;;;;5075036;28;20443;-60
2023/09/14 06:32:06;;;;;;;7.63;3.50;;;12.10;99.90;;;;;;5075470;28;20993;-59
2023/09/14 06:34:33;;;;;;;6.00;2.63;;;12.20;99.90;;;;;;5080585;28;20449;-58
2023/09/14 06:37:00;;;;;;;8.03;2.73;;;12.30;99.90;;;;;;5077458;28;20439;-60
2023/09/14 06:39:27;;;;;;;3.90;2.50;;;12.30;99.90;;;;;;5076785;28;20447;-59
2023/09/14 06:41:53;;;;;;;5.10;2.60;;;12.40;99.90;;;;;;5076139;28;20462;-60
2023/09/14 06:44:21;;;;;;;6.10;3.03;;;12.50;99.90;;;;;;5075805;28;20445;-60
2023/09/14 06:46:49;;;;;;;10.70;3.70;;;12.50;99.90;;;;;;5075260;28;20517;-60
2023/09/14 06:49:16;;;;;;;3.50;2.37;;;12.60;99.90;;;;;;5074650;28;20446;-59
2023/09/14 06:51:42;;;;;;;9.30;2.57;;;12.70;99.90;;;;;;5074206;28;20495;-61
2023/09/14 06:54:09;;;;;;;6.10;2.60;;;12.80;99.90;;;;;;5075018;28;20439;-60
2023/09/14 06:56:36;;;;;;;8.50;3.10;;;12.90;99.90;;;;;;5074542;28;20450;-59
2023/09/14 06:59:03;;;;;;;8.63;2.20;;;13.00;99.90;;;;;;5074851;28;20471;-60
2023/09/14 07:01:30;;;;;;;7.67;2.80;;;13.00;99.90;;;;;;5075080;28;20451;-59
2023/09/14 07:03:58;;;;;;;7.77;2.30;;;13.10;99.90;;;;;;5074647;28;20489;-59
2023/09/14 07:06:25;;;;;;;9.77;2.73;;;13.20;99.90;;;;;;5074412;28;20449;-60
2023/09/14 07:08:51;;;;;;;4.60;2.03;;;13.20;99.90;;;;;;5074734;28;20458;-60
2023/09/14 07:11:18;;;;;;;8.13;2.40;;;13.30;99.90;;;;;;5073760;28;20491;-60
2023/09/14 07:13:45;;;;;;;5.30;2.43;;;13.40;99.90;;;;;;5074919;28;20464;-59
2023/09/14 07:16:12;;;;;;;6.93;2.20;;;13.40;99.90;;;;;;5074379;28;20445;-60
2023/09/14 07:18:38;;;;;;;8.27;2.20;;;13.50;99.90;;;;;;5074095;28;20440;-58
2023/09/14 07:21:07;;;;;;;6.70;2.00;;;13.50;99.90;;;;;;5074474;28;20460;-60
2023/09/14 07:23:33;;;;;;;6.33;2.50;;;13.60;99.90;;;;;;5074394;28;20439;-59
2023/09/14 07:26:02;;;;;;;4.10;2.00;;;13.70;99.90;;;;;;5075061;28;20972;-60
2023/09/14 07:28:29;;;;;;;5.20;2.40;;;13.80;99.90;;;;;;5076428;28;20447;-59
2023/09/14 07:30:55;;;;;;;11.20;2.07;;;13.70;99.90;;;;;;5076693;28;20443;-61
2023/09/14 07:33:25;;;;;;;5.40;3.00;;;13.70;99.90;;;;;;5077446;28;20471;-60
2023/09/14 07:35:52;;;;;;;6.70;2.57;;;13.80;99.90;;;;;;5077144;28;20443;-59
2023/09/14 07:38:20;;;;;;;5.33;3.10;;;13.80;99.90;;;;;;5075156;28;20835;-59
2023/09/14 07:40:48;;;;;;;5.13;2.20;;;13.80;99.90;;;;;;5074167;28;20470;-59
2023/09/14 07:43:14;;;;;;;8.33;2.10;;;13.80;99.90;;;;;;5073685;28;20442;-60
2023/09/14 07:45:43;;;;;;;7.90;2.53;;;13.90;99.90;;;;;;5074168;28;20466;-60
2023/09/14 07:48:10;;;;;;;6.80;2.27;;;13.90;99.90;;;;;;5073255;28;20446;-59
2023/09/14 07:50:39;;;;;;;5.67;1.90;;;14.00;99.90;;;;;;5074157;28;20441;-59
2023/09/14 07:53:06;;;;;;;5.60;2.33;;;14.10;99.90;;;;;;5074643;28;20479;-59
2023/09/14 07:55:34;;;;;;;6.40;2.13;;;14.20;99.90;;;;;;5074391;28;20799;-60
2023/09/14 07:58:01;;;;;;;11.40;3.00;;;14.30;99.90;;;;;;5074848;28;20449;-59
2023/09/14 08:00:28;;;;;;;7.63;2.57;;;14.40;99.90;;;;;;5075163;28;20437;-59
2023/09/14 08:02:55;;;;;;;5.30;2.27;;;14.50;99.90;;;;;;5075765;28;20461;-58
2023/09/14 08:05:22;;;;;;;9.97;2.27;;;14.60;99.90;;;;;;5075305;28;20531;-58
2023/09/14 08:07:49;;;;;;;4.30;2.30;;;14.70;99.90;;;;;;5074077;28;20446;-59
2023/09/14 08:10:15;;;;;;;4.70;1.90;;;14.80;99.90;;;;;;5074054;28;20453;-59
2023/09/14 08:12:44;;;;;;;6.00;2.07;;;14.90;99.90;;;;;;5073708;28;20483;-60
2023/09/14 08:15:12;;;;;;;5.97;2.40;;;15.10;99.90;;;;;;5074407;28;20450;-60
2023/09/14 08:17:38;;;;;;;4.43;2.00;;;15.20;99.90;;;;;;5073795;28;20912;-60
2023/09/14 08:20:07;;;;;;;5.73;2.13;;;15.10;99.90;;;;;;5073412;28;20448;-59
2023/09/14 08:22:33;;;;;;;5.63;1.97;;;15.20;99.90;;;;;;5073297;28;20462;-60
2023/09/14 08:25:02;;;;;;;2.70;1.53;;;15.20;99.90;;;;;;5073118;28;20445;-60
2023/09/14 08:27:29;;;;;;;3.70;1.90;;;15.30;99.90;;;;;;5072550;28;20449;-60
2023/09/14 08:29:57;;;;;;;5.10;1.60;;;15.30;99.90;;;;;;5074742;28;20475;-60
2023/09/14 08:32:24;;;;;;;7.80;2.10;;;15.30;99.90;;;;;;5075345;28;20487;-59
2023/09/14 08:34:51;;;;;;;5.07;1.70;;;15.30;99.90;;;;;;5073802;28;21022;-59
2023/09/14 08:37:17;;;;;;;4.20;1.70;;;15.30;99.90;;;;;;5080771;28;20547;-60
2023/09/14 08:39:44;;;;;;;3.90;1.57;;;15.30;99.90;;;;;;5075801;28;20451;-60
2023/09/14 08:42:11;;;;;;;4.10;1.40;;;15.30;99.90;;;;;;5074267;28;20473;-59
2023/09/14 08:44:40;;;;;;;3.93;1.70;;;15.40;99.90;;;;;;5073355;28;20449;-60
2023/09/14 08:47:10;;;;;;;6.70;2.27;;;15.50;99.70;;;;;;5073478;28;20439;-60
2023/09/14 08:49:37;;;;;;;5.63;1.70;;;15.60;99.40;;;;;;5073556;28;20448;-60
2023/09/14 08:52:06;;;;;;;5.13;2.00;;;15.60;98.90;;;;;;5073288;28;20493;-60
2023/09/14 08:54:33;;;;;;;5.17;1.40;;;15.70;98.40;;;;;;5074343;28;20458;-60
2023/09/14 08:56:59;;;;;;;4.70;1.47;;;15.80;97.80;;;;;;5073711;28;20440;-60
2023/09/14 08:59:27;;;;;;;2.10;1.30;;;15.90;97.10;;;;;;5077869;28;20434;-60
2023/09/14 09:01:57;;;;;;;5.30;1.63;;;16.00;96.30;;;;;;5077546;28;20583;-59
2023/09/14 09:04:25;;;;;;;8.57;2.00;;;16.00;95.60;;;;;;5076265;28;20493;-59
2023/09/14 09:06:52;;;;;;;5.03;1.80;;;16.00;94.90;;;;;;5076600;28;20447;-60
2023/09/14 09:09:21;;;;;;;4.67;1.40;;;16.10;94.50;;;;;;5076320;28;20437;-60
2023/09/14 09:11:48;;;;;;;4.97;1.43;;;16.20;93.80;;;;;;5076181;28;20493;-60
2023/09/14 09:14:15;;;;;;;5.37;1.33;;;16.20;92.80;;;;;;5076571;28;20446;-60
2023/09/14 09:16:42;;;;;;;7.80;2.97;;;16.30;91.70;;;;;;5076349;28;20547;-60
2023/09/14 09:19:10;;;;;;;9.60;1.50;;;16.30;90.90;;;;;;5075985;28;20454;-60
2023/09/14 09:21:39;;;;;;;3.60;1.40;;;16.50;90.20;;;;;;5077083;28;20471;-59
2023/09/14 09:24:07;;;;;;;7.33;1.23;;;16.70;88.60;;;;;;5076504;28;20439;-60
2023/09/14 09:26:35;;;;;;;1.87;1.03;;;16.90;86.00;;;;;;5076845;28;20442;-59
2023/09/14 09:29:13;;;;;;;3.47;1.40;;;17.10;83.80;;;;;;5076396;28;20884;-60
2023/09/14 09:31:44;;;;;;;5.03;1.60;;;17.10;81.20;;;;;;5076793;28;20462;-59
2023/09/14 09:34:12;;;;;;;3.00;1.20;;;17.20;80.00;;;;;;5076295;28;20808;-59
2023/09/14 09:36:41;;;;;;;5.80;1.30;;;17.20;78.90;;;;;;5076387;28;20435;-59
2023/09/14 09:39:11;;;;;;;2.33;1.20;;;17.20;78.20;;;;;;5077172;28;20467;-61
2023/09/14 09:41:39;;;;;;;3.90;1.10;;;17.20;77.50;;;;;;5076094;28;20463;-61
2023/09/14 09:44:08;;;;;;;2.60;1.40;;;17.30;75.60;;;;;;5076454;28;20526;-60
2023/09/14 09:46:35;;;;;;;3.97;1.13;;;17.30;73.30;;;;;;5076748;28;20534;-60
2023/09/14 09:49:04;;;;;;;5.50;1.30;;;17.40;71.70;;;;;;5077869;28;20492;-60
2023/09/14 09:51:33;;;;;;;4.30;1.37;;;17.50;70.20;;;;;;5076043;28;20481;-60
2023/09/14 09:54:05;;;;;;;4.20;1.30;;;17.60;69.00;;;;;;5075721;28;20442;-61
2023/09/14 09:56:35;;;;;;;3.30;1.20;;;17.70;67.40;;;;;;5075459;28;20485;-61
2023/09/14 09:59:09;;;;;;;6.20;1.97;;;17.70;66.80;;;;;;5075980;28;20528;-60
2023/09/14 10:01:37;;;;;;;3.10;1.43;;;17.70;66.40;;;;;;5076741;28;20462;-61
2023/09/14 10:04:08;;;;;;;5.73;1.30;;;17.60;66.10;;;;;;5077183;28;20466;-60
2023/09/14 10:06:36;;;;;;;2.53;1.27;;;17.50;66.30;;;;;;5078810;28;20807;-61
2023/09/14 10:09:09;;;;;;;1.90;1.17;;;17.50;66.30;;;;;;5080845;28;20831;-61
2023/09/14 10:11:36;;;;;;;3.03;1.00;;;17.50;66.00;;;;;;5079262;28;20478;-60
2023/09/14 10:14:04;;;;;;;3.17;1.50;;;17.60;65.80;;;;;;5080277;28;20442;-60
2023/09/14 10:16:36;;;;;;;2.80;1.27;;;17.90;65.30;;;;;;5079175;28;20532;-60
2023/09/14 10:19:03;;;;;;;3.67;1.77;;;18.30;64.40;;;;;;5075464;28;20801;-60
2023/09/14 10:21:30;;;;;;;3.07;1.50;;;18.60;62.80;;;;;;5075249;28;20458;-60
2023/09/14 10:23:58;;;;;;;2.77;1.60;;;19.00;61.50;;;;;;5074942;28;20434;-61
2023/09/14 10:26:26;;;;;;;3.03;1.50;;;19.30;60.10;;;;;;5075337;28;20825;-60
2023/09/14 10:28:54;;;;;;;1.83;1.13;;;19.40;59.00;;;;;;5074846;28;20447;-61
2023/09/14 10:31:23;;;;;;;4.47;1.70;;;19.30;58.60;;;;;;5075133;28;20461;-58
2023/09/14 10:33:51;;;;;;;4.60;1.47;;;19.20;58.50;;;;;;5074417;28;20998;-60
2023/09/14 10:36:19;;;;;;;6.93;1.63;;;19.00;58.30;;;;;;5074400;28;20940;-60
2023/09/14 10:38:47;;;;;;;3.60;1.50;;;18.80;58.60;;;;;;5074598;28;20937;-60
2023/09/14 10:41:14;;;;;;;7.50;2.03;;;18.60;58.80;;;;;;5074771;28;20473;-58
2023/09/14 10:43:42;;;;;;;2.17;1.27;;;18.50;58.90;;;;;;5074568;28;20977;-59
2023/09/14 10:46:17;;;;;;;4.00;1.60;;;18.50;59.10;;;;;;5074383;28;20446;-60
2023/09/14 10:48:45;;;;;;;5.60;1.73;;;18.40;59.20;;;;;;5074635;28;20434;-60
2023/09/14 10:51:12;;;;;;;2.80;2.00;;;18.30;59.10;;;;;;5074378;28;20470;-60
2023/09/14 10:53:41;;;;;;;3.57;1.33;;;18.30;59.30;;;;;;5074057;28;20839;-61
2023/09/14 10:56:20;;;;;;;4.10;1.90;;;18.40;59.30;;;;;;5074141;28;20519;-60
2023/09/14 10:58:52;;;;;;;2.67;1.43;;;18.60;58.80;;;;;;5073929;28;20434;-60
2023/09/14 11:01:25;;;;;;;3.50;1.33;;;18.90;58.20;;;;;;5074084;28;20467;-61
2023/09/14 11:04:10;;;;;;;3.80;2.10;;;19.10;57.30;;;;;;5074465;28;20418;-61
2023/09/14 11:06:44;;;;;;;5.80;1.60;;;19.20;56.40;;;;;;5074457;28;20489;-60
2023/09/14 11:09:13;;;;;;;4.10;1.83;;;19.30;56.50;;;;;;5074331;28;20443;-61
2023/09/14 11:11:41;;;;;;;3.13;1.30;;;19.50;56.10;;;;;;5073812;28;20490;-60
2023/09/14 11:14:10;;;;;;;3.20;1.63;;;19.60;55.30;;;;;;5073906;28;20485;-60
2023/09/14 11:16:48;;;;;;;2.47;1.47;;;19.60;55.10;;;;;;5073769;28;20826;-62
2023/09/14 11:19:52;;;;;;;5.10;2.33;;;19.50;54.90;;;;;;5073789;28;20422;-59
2023/09/14 11:22:18;;;;;;;2.10;1.40;;;19.70;54.90;;;;;;5073707;28;20469;-61
2023/09/14 11:24:46;;;;;;;3.57;1.80;;;19.80;54.30;;;;;;5075561;28;20442;-61
2023/09/14 11:27:19;;;;;;;4.90;1.83;;;19.90;54.20;;;;;;5074344;28;20503;-61
2023/09/14 11:29:48;;;;;;;2.30;1.40;;;20.20;54.30;;;;;;5073846;28;20447;-61
2023/09/14 11:32:22;;;;;;;3.40;1.17;;;20.40;53.70;;;;;;5073594;28;21007;-60
2023/09/14 11:34:48;;;;;;;3.03;1.40;;;20.50;53.90;;;;;;5074010;28;20470;-61
2023/09/14 11:37:16;;;;;;;2.00;1.33;;;20.70;53.90;;;;;;5073745;28;20448;-61
2023/09/14 11:39:53;;;;;;;4.80;1.50;;;20.80;53.60;;;;;;5073631;28;20446;-60
2023/09/14 11:42:20;;;;;;;5.70;1.70;;;20.90;53.50;;;;;;5073442;28;20465;-60
2023/09/14 11:44:50;;;;;;;2.63;1.33;;;20.90;53.60;;;;;;5072845;28;20445;-61
2023/09/14 11:47:17;;;;;;;4.93;1.77;;;21.00;53.40;;;;;;5073079;28;20442;-61
2023/09/14 11:49:47;;;;;;;3.13;1.40;;;21.30;52.90;;;;;;5073416;28;20434;-59
2023/09/14 11:52:19;;;;;;;5.47;1.60;;;21.50;52.60;;;;;;5073185;28;20531;-60
2023/09/14 11:54:47;;;;;;;2.80;1.50;;;21.50;52.50;;;;;;5073174;28;20807;-61
2023/09/14 11:57:14;;;;;;;4.23;1.30;;;21.50;52.40;;;;;;5073788;28;20464;-61
2023/09/14 11:59:41;;;;;;;5.10;2.33;;;21.50;52.50;;;;;;5073533;28;20451;-61
2023/09/14 12:02:10;;;;;;;5.93;2.20;;;21.60;52.20;;;;;;5073200;28;20458;-59
2023/09/14 12:04:37;;;;;;;3.37;1.63;;;21.50;51.70;;;;;;5073458;28;20523;-60
2023/09/14 12:07:04;;;;;;;3.90;1.70;;;21.20;51.80;;;;;;5073220;28;20543;-60
2023/09/14 12:09:39;;;;;;;4.80;1.60;;;21.00;51.90;;;;;;5073419;28;20446;-60
2023/09/14 12:12:06;;;;;;;4.90;1.90;;;20.60;52.30;;;;;;5073112;28;20479;-61
2023/09/14 12:14:37;;;;;;;4.67;2.00;;;20.40;52.90;;;;;;5073924;28;20505;-61
2023/09/14 12:17:18;;;;;;;5.33;2.50;;;20.40;52.90;;;;;;5073448;28;20532;-60
2023/09/14 12:19:55;;;;;;;4.80;1.90;;;20.20;53.00;;;;;;5073570;28;20469;-61
2023/09/14 12:22:24;;;;;;;4.63;2.13;;;20.10;53.20;;;;;;5073090;28;20600;-59
2023/09/14 12:24:52;;;;;;;5.50;1.73;;;20.00;53.30;;;;;;5073455;28;20441;-61
2023/09/14 12:27:19;;;;;;;3.73;1.40;;;20.00;53.40;;;;;;5073631;28;20440;-61
2023/09/14 12:29:47;;;;;;;2.40;1.83;;;20.00;54.10;;;;;;5073714;28;20445;-61
2023/09/14 12:32:15;;;;;;;6.53;2.00;;;20.20;53.50;;;;;;5075114;28;20455;-60
2023/09/14 12:34:42;;;;;;;5.53;2.73;;;20.50;53.10;;;;;;5077781;28;20508;-61
2023/09/14 12:37:10;;;;;;;2.87;1.80;;;20.60;52.60;;;;;;5077836;28;20928;-61
2023/09/14 12:39:38;;;;;;;3.97;1.90;;;20.60;52.30;;;;;;5080933;28;20503;-61
2023/09/14 12:42:06;;;;;;;3.93;2.17;;;20.20;52.40;;;;;;5084215;28;20474;-61
2023/09/14 12:44:33;;;;;;;4.60;1.80;;;19.90;53.10;;;;;;5083838;28;20442;-61
2023/09/14 12:46:59;;;;;;;3.53;1.50;;;19.70;53.30;;;;;;5085353;28;20447;-60
2023/09/14 12:49:26;;;;;;;2.70;1.40;;;19.70;53.70;;;;;;5084433;28;20448;-61
2023/09/14 12:51:53;;;;;;;1.87;1.70;;;19.60;53.70;;;;;;5082285;28;20487;-61